McCook, NE (69001)

6:55 AM CST on February 01, 2015 (GMT -0600)
KNEMCCOO2 | Change Station
CLOSE
Current Station
Personal Weather Station
Location: McCook, NE
Elevation: 2609 ft
Nearby Weather Stations

Elev 2609 ft 40.21 °N, 100.64 °W | Updated 9 minutes ago

Overcast
Overcast
15.6 °F
Feels Like 16 °F
N
0.0
Wind Variable Wind from NNE
Gusts 0.6 mph

Today
High -- | Low -- °F
--% Chance of Precip.
Yesterday
High -- | Low -- °F
Precip. -- in
7:51 AM 6:01 PM
Waxing Gibbous, 95% visible
Pressure 30.17 in
Visibility 9.0 miles
Clouds Overcast 5500 ft
Windchill 16 °F
Dew Point 10 °F
Humidity 79%
Rainfall 0.00 in
Snow Depth Not available.
UV 0 out of 12
Pollen .10 out of 12
Air Quality Not available.
Flu Activity Not available.
METAR KMCK 011153Z AUTO 33022G29KT 9SM OVC055 M09/M13 A3007 RMK AO2 PK WND 34030/1100 UPB02E11 SLP215 P0000 60001 70011 T10891128 11050 21089 51031

More Conditions Fewer Conditions

Pressure 30.17 in
Visibility 9.0 miles
Clouds Overcast 5500 ft
Windchill 16 °F
Dew Point 10 °F
Humidity 79%
Rainfall 0.00 in
Snow Depth Not available.
UV 0 out of 12
Pollen .10 out of 12
Air Quality Not available.
Flu Activity Not available.
METAR KMCK 011153Z AUTO 33022G29KT 9SM OVC055 M09/M13 A3007 RMK AO2 PK WND 34030/1100 UPB02E11 SLP215 P0000 60001 70011 T10891128 11050 21089 51031

More Conditions Fewer Conditions

10-Day Weather Forecast

Almanac

Astronomy

Feb. 01, 2015 Rise Set
Actual Time
Civil Twilight
Nautical Twilight
Astronomical Twilight
Moon
Length of Visible Light
Length of Day
Tomorrow will be .
, % of the Moon is Illuminated

Today's Extremes

State Highs State Lows

Community

WunderPhotos

Upload Photos

1,792,353 photos uploaded!

WunderBlogs® & News

Nearby

Air Quality

  Air Quality AQ Index Pollutant
Not available.

Snow Depth

Station Depth Elevation

Earthquake Activity

City Distance Mag. Time & Date
Minimum magnitude displayed is 2.5.

Coastal Water Temperatures

Place Temperature

Nearby Weather Stations